createdAt,value
2019-04-28T00:00:54.171Z,2.76
2019-04-28T00:01:54.201Z,2.72
2019-04-28T00:02:54.159Z,2.59
2019-04-28T00:03:54.137Z,2.62
2019-04-28T00:04:54.126Z,2.64
2019-04-28T00:05:54.113Z,2.64
2019-04-28T00:06:54.101Z,2.65
2019-04-28T00:07:54.110Z,2.64
2019-04-28T00:08:54.099Z,2.69
2019-04-28T00:09:54.076Z,2.58
2019-04-28T00:10:54.061Z,2.61
2019-04-28T00:11:54.046Z,2.52
2019-04-28T00:12:54.040Z,2.52
2019-04-28T00:13:54.036Z,2.47
2019-04-28T00:14:54.026Z,2.57
2019-04-28T00:15:54.002Z,2.46
2019-04-28T00:16:53.999Z,2.46
2019-04-28T00:17:54.013Z,2.46
2019-04-28T00:19:06.542Z,2.41
2019-04-28T00:19:54.524Z,2.40
2019-04-28T00:20:53.997Z,2.39
2019-04-28T00:21:53.973Z,2.39
2019-04-28T00:22:53.994Z,2.34
2019-04-28T00:23:53.924Z,2.28
2019-04-28T00:24:54.002Z,2.28
2019-04-28T00:25:53.901Z,2.28
2019-04-28T00:26:53.889Z,2.37
2019-04-28T00:27:53.875Z,2.25
2019-04-28T00:28:53.865Z,2.25
2019-04-28T00:29:53.865Z,2.21
2019-04-28T00:30:53.885Z,2.21
2019-04-28T00:31:53.835Z,2.19
2019-04-28T00:32:53.843Z,2.15
2019-04-28T00:33:53.815Z,2.14
2019-04-28T00:34:53.809Z,2.14
2019-04-28T00:35:53.797Z,2.16
2019-04-28T00:36:53.824Z,2.15
2019-04-28T00:37:53.776Z,2.12
2019-04-28T00:38:53.758Z,1.98
2019-04-28T00:39:53.749Z,2.04
2019-04-28T00:40:53.753Z,2.03
2019-04-28T00:41:53.737Z,1.98
2019-04-28T00:42:53.729Z,1.98
2019-04-28T00:43:53.709Z,1.93
2019-04-28T00:44:53.696Z,2.00
2019-04-28T00:45:53.684Z,1.95
2019-04-28T00:46:53.681Z,2.03
2019-04-28T00:47:53.713Z,2.03
2019-04-28T00:48:53.655Z,1.89
2019-04-28T00:50:04.932Z,1.97
2019-04-28T00:50:53.629Z,1.84
2019-04-28T00:51:53.618Z,1.95
2019-04-28T00:52:53.613Z,1.93
2019-04-28T00:53:53.609Z,1.84
2019-04-28T00:54:53.590Z,1.88
2019-04-28T00:55:54.068Z,1.84
2019-04-28T00:56:53.568Z,1.79
2019-04-28T00:57:53.561Z,1.79
2019-04-28T00:58:53.608Z,1.71
2019-04-28T00:59:58.204Z,1.68
2019-04-28T01:00:54.529Z,1.71
2019-04-28T01:01:53.526Z,1.85
2019-04-28T01:02:53.518Z,1.81
2019-04-28T01:03:53.509Z,1.61
2019-04-28T01:04:53.579Z,1.70
2019-04-28T01:05:53.474Z,1.70
2019-04-28T01:06:53.466Z,1.70
2019-04-28T01:07:53.449Z,1.70
2019-04-28T01:08:53.449Z,1.64
2019-04-28T01:09:53.429Z,1.52
2019-04-28T01:10:53.456Z,1.57
2019-04-28T01:11:53.621Z,1.56
2019-04-28T01:12:53.400Z,1.49
2019-04-28T01:13:53.387Z,1.50
2019-04-28T01:14:55.451Z,1.45
2019-04-28T01:15:53.363Z,1.43
2019-04-28T01:16:53.403Z,1.46
2019-04-28T01:17:53.352Z,1.49
2019-04-28T01:18:53.332Z,1.45
2019-04-28T01:19:53.319Z,1.42
2019-04-28T01:21:03.905Z,1.45
2019-04-28T01:21:53.299Z,1.49
2019-04-28T01:22:53.307Z,1.43
2019-04-28T01:23:53.283Z,1.42
2019-04-28T01:24:53.267Z,1.39
2019-04-28T01:25:53.261Z,1.45
2019-04-28T01:26:53.268Z,1.36
2019-04-28T01:27:53.244Z,1.45
2019-04-28T01:28:53.229Z,1.40
2019-04-28T01:30:05.478Z,1.46
2019-04-28T01:30:54.201Z,1.34
2019-04-28T01:31:53.189Z,1.39
2019-04-28T01:32:53.218Z,1.27
2019-04-28T01:33:53.169Z,1.21
2019-04-28T01:34:53.160Z,1.25
2019-04-28T01:35:53.151Z,1.30
2019-04-28T01:36:53.145Z,1.27
2019-04-28T01:37:53.129Z,1.27
2019-04-28T01:38:53.161Z,1.25
2019-04-28T01:39:53.108Z,1.24
2019-04-28T01:40:53.100Z,1.22
2019-04-28T01:41:53.082Z,1.12
2019-04-28T01:42:53.085Z,1.27
2019-04-28T01:43:53.062Z,1.16
2019-04-28T01:44:53.069Z,1.21
2019-04-28T01:45:53.039Z,1.12
2019-04-28T01:46:53.033Z,1.14
2019-04-28T01:47:53.029Z,1.13
2019-04-28T01:48:53.015Z,1.13
2019-04-28T01:49:52.995Z,1.16
2019-04-28T01:50:53.030Z,1.12
2019-04-28T01:52:05.717Z,1.10
2019-04-28T01:52:52.975Z,1.18
2019-04-28T01:53:52.954Z,1.14
2019-04-28T01:54:53.590Z,1.16
2019-04-28T01:55:52.933Z,1.10
2019-04-28T01:56:52.973Z,1.10
2019-04-28T01:57:52.910Z,1.00
2019-04-28T01:58:52.902Z,1.14
2019-04-28T01:59:52.889Z,1.06
2019-04-28T02:00:52.905Z,1.07
2019-04-28T02:01:52.924Z,1.03
2019-04-28T02:02:52.905Z,1.00
2019-04-28T02:03:52.846Z,1.07
2019-04-28T02:04:52.840Z,1.09
2019-04-28T02:05:52.839Z,1.10
2019-04-28T02:06:52.817Z,1.03
2019-04-28T02:07:52.808Z,1.06
2019-04-28T02:08:52.913Z,1.10
2019-04-28T02:09:52.790Z,1.03
2019-04-28T02:10:52.774Z,1.00
2019-04-28T02:11:52.760Z,0.95
2019-04-28T02:12:52.749Z,1.03
2019-04-28T02:13:52.791Z,1.00
2019-04-28T02:14:52.732Z,1.07
2019-04-28T02:15:52.730Z,1.00
2019-04-28T02:16:53.612Z,0.99
2019-04-28T02:18:00.085Z,1.00
2019-04-28T02:18:52.688Z,1.13
2019-04-28T02:19:52.741Z,0.91
2019-04-28T02:20:59.650Z,1.00
2019-04-28T02:21:52.656Z,0.94
2019-04-28T02:22:59.938Z,0.95
2019-04-28T02:23:52.637Z,1.03
2019-04-28T02:24:52.627Z,0.96
2019-04-28T02:25:52.654Z,1.07
2019-04-28T02:26:52.804Z,0.99
2019-04-28T02:27:52.598Z,1.03
2019-04-28T02:28:52.584Z,1.00
2019-04-28T02:29:52.583Z,1.02
2019-04-28T02:30:53.878Z,1.03
2019-04-28T02:31:52.591Z,0.96
2019-04-28T02:32:52.540Z,1.02
2019-04-28T02:33:53.865Z,1.03
2019-04-28T02:34:52.516Z,0.99
2019-04-28T02:35:52.514Z,1.03
2019-04-28T02:36:53.803Z,1.02
2019-04-28T02:37:52.520Z,1.02
2019-04-28T02:38:52.472Z,1.10
2019-04-28T02:39:52.470Z,1.09
2019-04-28T02:40:52.464Z,1.07
2019-04-28T02:41:52.441Z,1.06
2019-04-28T02:42:52.514Z,1.10
2019-04-28T02:43:52.455Z,1.07
2019-04-28T02:44:52.454Z,1.04
2019-04-28T02:45:53.448Z,1.10
2019-04-28T02:46:52.388Z,1.07
2019-04-28T02:47:52.518Z,1.14
2019-04-28T02:48:54.115Z,1.09
2019-04-28T02:49:52.407Z,1.18
2019-04-28T02:50:52.353Z,1.16
2019-04-28T02:51:52.361Z,1.20
2019-04-28T02:52:52.330Z,1.13
2019-04-28T02:54:03.554Z,1.13
2019-04-28T02:54:52.313Z,1.18
2019-04-28T02:55:52.335Z,1.21
2019-04-28T02:56:52.282Z,1.20
2019-04-28T02:57:52.298Z,1.13
2019-04-28T02:58:52.260Z,1.16
2019-04-28T02:59:52.245Z,1.25
2019-04-28T03:01:02.565Z,1.13
2019-04-28T03:01:53.264Z,1.18
2019-04-28T03:02:52.243Z,1.21
2019-04-28T03:03:52.209Z,1.16
2019-04-28T03:04:52.209Z,1.16
2019-04-28T03:05:52.196Z,1.21
2019-04-28T03:06:52.171Z,1.21
2019-04-28T03:07:52.168Z,1.24
2019-04-28T03:08:52.153Z,1.20
2019-04-28T03:09:52.477Z,1.20
2019-04-28T03:10:52.133Z,1.20
2019-04-28T03:11:52.141Z,1.24
2019-04-28T03:12:52.260Z,1.27
2019-04-28T03:13:52.110Z,1.27
2019-04-28T03:14:52.093Z,1.42
2019-04-28T03:15:52.082Z,1.40
2019-04-28T03:16:52.101Z,1.40
2019-04-28T03:17:53.163Z,1.34
2019-04-28T03:18:52.094Z,1.40
2019-04-28T03:19:52.046Z,1.42
2019-04-28T03:21:01.727Z,1.42
2019-04-28T03:21:52.016Z,1.61
2019-04-28T03:22:52.004Z,1.82
2019-04-28T03:23:52.083Z,2.14
2019-04-28T03:24:52.035Z,2.47
2019-04-28T03:25:51.979Z,2.79
2019-04-28T03:26:51.962Z,3.00
2019-04-28T03:27:51.946Z,3.19
2019-04-28T03:28:51.938Z,3.12
2019-04-28T03:29:52.543Z,3.03
2019-04-28T03:30:53.934Z,3.12
2019-04-28T03:32:16.442Z,3.59
2019-04-28T03:32:59.409Z,3.95
2019-04-28T03:33:55.473Z,4.02
2019-04-28T03:34:53.686Z,4.48
2019-04-28T03:35:53.612Z,4.18
2019-04-28T03:36:52.015Z,3.77
2019-04-28T03:37:51.838Z,3.43
2019-04-28T03:38:53.224Z,3.30
2019-04-28T03:39:51.818Z,3.30
2019-04-28T03:40:51.816Z,3.76
2019-04-28T03:41:51.851Z,3.59
2019-04-28T03:42:51.786Z,3.34
2019-04-28T03:43:51.772Z,3.64
2019-04-28T03:44:51.766Z,4.00
2019-04-28T03:45:51.755Z,4.18
2019-04-28T03:46:51.747Z,4.36
2019-04-28T03:47:51.770Z,3.67
2019-04-28T03:48:51.719Z,3.81
2019-04-28T03:49:51.711Z,4.22
2019-04-28T03:50:51.695Z,4.57
2019-04-28T03:52:03.990Z,4.58
2019-04-28T03:52:51.675Z,4.53
2019-04-28T03:53:51.709Z,4.48
2019-04-28T03:54:51.660Z,3.86
2019-04-28T03:55:51.644Z,4.12
2019-04-28T03:56:53.669Z,4.49
2019-04-28T03:57:51.630Z,4.43
2019-04-28T03:58:51.633Z,4.45
2019-04-28T03:59:51.708Z,4.57
2019-04-28T04:00:51.591Z,4.68
2019-04-28T04:01:58.574Z,4.63
2019-04-28T04:02:52.582Z,4.46
2019-04-28T04:03:51.898Z,4.25
2019-04-28T04:04:52.472Z,4.43
2019-04-28T04:05:51.572Z,4.49
2019-04-28T04:06:51.523Z,4.75
2019-04-28T04:07:51.526Z,5.08
2019-04-28T04:08:51.503Z,4.83
2019-04-28T04:09:51.730Z,4.46
2019-04-28T04:10:51.482Z,4.42
2019-04-28T04:11:51.506Z,4.67
2019-04-28T04:12:51.455Z,4.52
2019-04-28T04:13:51.562Z,4.49
2019-04-28T04:14:51.432Z,4.06
2019-04-28T04:15:54.272Z,4.52
2019-04-28T04:16:51.426Z,4.45
2019-04-28T04:17:51.416Z,4.61
2019-04-28T04:18:53.769Z,5.15
2019-04-28T04:19:51.383Z,4.49
2019-04-28T04:20:51.504Z,5.00
2019-04-28T04:21:52.739Z,4.89
2019-04-28T04:23:01.826Z,4.78
2019-04-28T04:23:51.332Z,4.89
2019-04-28T04:24:52.494Z,5.26
2019-04-28T04:25:51.410Z,5.08
2019-04-28T04:26:51.302Z,5.43
2019-04-28T04:27:51.289Z,5.28
2019-04-28T04:28:51.827Z,4.87
2019-04-28T04:29:51.271Z,5.23
2019-04-28T04:30:51.265Z,5.43
2019-04-28T04:31:51.395Z,5.67
2019-04-28T04:32:51.241Z,5.92
2019-04-28T04:33:51.229Z,6.17
2019-04-28T04:34:51.236Z,5.70
2019-04-28T04:35:51.903Z,5.51
2019-04-28T04:36:51.198Z,5.84
2019-04-28T04:37:51.177Z,6.47
2019-04-28T04:38:51.754Z,6.53
2019-04-28T04:39:51.481Z,6.67
2019-04-28T04:40:51.506Z,7.23
2019-04-28T04:41:51.156Z,7.03
2019-04-28T04:42:51.129Z,7.61
2019-04-28T04:43:51.540Z,7.56
2019-04-28T04:44:51.106Z,7.22
2019-04-28T04:45:51.136Z,6.13
2019-04-28T04:46:51.177Z,6.67
2019-04-28T04:47:51.092Z,7.15
2019-04-28T04:48:51.249Z,7.47
2019-04-28T04:49:51.062Z,7.58
2019-04-28T04:50:51.185Z,7.59
2019-04-28T04:51:51.155Z,7.10
2019-04-28T04:52:51.013Z,6.52
2019-04-28T04:54:03.472Z,7.14
2019-04-28T04:54:51.204Z,7.58
2019-04-28T04:55:52.657Z,6.22
2019-04-28T04:56:50.970Z,6.20
2019-04-28T04:57:51.015Z,6.62
2019-04-28T04:58:51.005Z,7.13
2019-04-28T04:59:50.936Z,7.37
2019-04-28T05:00:51.256Z,6.90
2019-04-28T05:01:50.914Z,7.05
2019-04-28T05:02:52.954Z,6.49
2019-04-28T05:03:50.902Z,5.88
2019-04-28T05:04:50.880Z,6.05
2019-04-28T05:05:50.894Z,6.49
2019-04-28T05:06:50.858Z,6.20
2019-04-28T05:07:50.868Z,6.74
2019-04-28T05:08:51.367Z,7.01
2019-04-28T05:09:50.819Z,7.32
2019-04-28T05:10:50.818Z,7.26
2019-04-28T05:11:50.818Z,6.90
2019-04-28T05:12:51.823Z,7.53
2019-04-28T05:13:50.776Z,7.55
2019-04-28T05:14:50.853Z,7.23
2019-04-28T05:15:52.672Z,6.16
2019-04-28T05:16:50.743Z,6.13
2019-04-28T05:17:50.771Z,6.60
2019-04-28T05:18:50.725Z,6.78
2019-04-28T05:19:50.747Z,6.82
2019-04-28T05:20:50.702Z,6.41
2019-04-28T05:21:50.690Z,6.49
2019-04-28T05:22:50.678Z,6.56
2019-04-28T05:23:51.066Z,7.26
2019-04-28T05:25:01.887Z,7.59
2019-04-28T05:25:50.646Z,6.65
2019-04-28T05:26:51.558Z,6.71
2019-04-28T05:27:54.484Z,7.33
2019-04-28T05:28:53.393Z,8.23
2019-04-28T05:29:51.330Z,8.14
2019-04-28T05:30:50.630Z,8.05
2019-04-28T05:31:54.444Z,8.28
2019-04-28T05:32:56.165Z,8.81
2019-04-28T05:33:51.550Z,8.75
2019-04-28T05:34:52.826Z,8.60
2019-04-28T05:35:50.539Z,7.67
2019-04-28T05:36:50.662Z,7.29
2019-04-28T05:37:50.513Z,7.81
2019-04-28T05:38:50.498Z,8.27
2019-04-28T05:39:52.642Z,9.34
2019-04-28T05:40:50.477Z,8.09
2019-04-28T05:41:50.647Z,8.23
2019-04-28T05:42:50.454Z,8.18
2019-04-28T05:43:50.542Z,9.26
2019-04-28T05:44:50.437Z,9.13
2019-04-28T05:45:50.428Z,9.39
2019-04-28T05:46:50.847Z,9.26
2019-04-28T05:47:52.015Z,8.97
2019-04-28T05:48:51.289Z,8.50
2019-04-28T05:49:51.454Z,8.06
2019-04-28T05:50:50.375Z,7.69
2019-04-28T05:51:50.532Z,7.31
2019-04-28T05:52:50.343Z,6.87
2019-04-28T05:53:59.404Z,7.74
2019-04-28T05:54:50.331Z,7.96
2019-04-28T05:55:50.310Z,8.60
2019-04-28T05:56:50.301Z,8.84
2019-04-28T05:57:53.007Z,8.99
2019-04-28T05:58:50.492Z,8.54
2019-04-28T05:59:50.643Z,8.24
2019-04-28T06:00:50.259Z,8.35
2019-04-28T06:01:50.667Z,8.09
2019-04-28T06:02:56.437Z,8.32
2019-04-28T06:03:51.224Z,8.36
2019-04-28T06:04:50.211Z,8.05
2019-04-28T06:05:50.223Z,8.74
2019-04-28T06:06:50.197Z,8.84
2019-04-28T06:07:50.179Z,7.46
2019-04-28T06:08:50.983Z,6.65
2019-04-28T06:09:50.191Z,6.57
2019-04-28T06:10:50.146Z,6.47
2019-04-28T06:11:50.194Z,6.35
2019-04-28T06:12:50.141Z,6.62
2019-04-28T06:13:52.445Z,6.28
2019-04-28T06:14:50.332Z,5.88
2019-04-28T06:15:50.109Z,5.67
2019-04-28T06:16:50.693Z,5.97
2019-04-28T06:17:50.080Z,5.88
2019-04-28T06:18:50.138Z,5.70
2019-04-28T06:19:50.534Z,5.74
2019-04-28T06:20:50.033Z,5.88
2019-04-28T06:21:50.031Z,5.90
2019-04-28T06:22:50.044Z,6.01
2019-04-28T06:23:49.999Z,5.69
2019-04-28T06:25:01.261Z,5.02
2019-04-28T06:25:49.980Z,4.97
2019-04-28T06:26:49.972Z,4.61
2019-04-28T06:27:50.898Z,4.48
2019-04-28T06:28:49.968Z,4.43
2019-04-28T06:29:49.951Z,4.58
2019-04-28T06:30:49.930Z,4.42
2019-04-28T06:31:49.917Z,4.45
2019-04-28T06:32:49.912Z,4.45
2019-04-28T06:33:49.891Z,4.50
2019-04-28T06:34:49.970Z,4.67
2019-04-28T06:35:49.935Z,4.90
2019-04-28T06:36:49.856Z,4.52
2019-04-28T06:37:49.858Z,4.36
2019-04-28T06:38:49.835Z,4.20
2019-04-28T06:39:49.824Z,4.53
2019-04-28T06:40:49.848Z,4.84
2019-04-28T06:41:49.802Z,5.28
2019-04-28T06:42:49.793Z,5.56
2019-04-28T06:43:50.398Z,5.44
2019-04-28T06:44:49.777Z,5.36
2019-04-28T06:45:50.393Z,5.05
2019-04-28T06:46:49.751Z,4.83
2019-04-28T06:47:49.740Z,4.78
2019-04-28T06:48:49.726Z,4.89
2019-04-28T06:49:49.716Z,4.71
2019-04-28T06:50:49.700Z,4.45
2019-04-28T06:51:49.735Z,4.48
2019-04-28T06:52:49.768Z,4.45
2019-04-28T06:53:49.668Z,4.70
2019-04-28T06:54:49.654Z,4.71
2019-04-28T06:56:02.384Z,4.71
2019-04-28T06:56:49.637Z,4.67
2019-04-28T06:57:49.633Z,4.87
2019-04-28T06:58:58.830Z,5.01
2019-04-28T06:59:50.606Z,4.68
2019-04-28T07:00:49.594Z,4.43
2019-04-28T07:01:49.579Z,4.39
2019-04-28T07:02:49.615Z,4.50
2019-04-28T07:03:49.559Z,4.48
2019-04-28T07:05:01.148Z,4.48
2019-04-28T07:05:50.539Z,4.53
2019-04-28T07:06:49.528Z,4.56
2019-04-28T07:07:49.519Z,4.66
2019-04-28T07:08:49.554Z,4.84
2019-04-28T07:09:49.508Z,4.92
2019-04-28T07:10:49.480Z,5.15
2019-04-28T07:11:50.429Z,4.95
2019-04-28T07:12:49.465Z,4.82
2019-04-28T07:13:49.457Z,4.75
2019-04-28T07:14:49.485Z,4.92
2019-04-28T07:15:49.440Z,5.28
2019-04-28T07:16:49.416Z,4.98
2019-04-28T07:17:49.411Z,5.25
2019-04-28T07:18:49.406Z,5.62
2019-04-28T07:19:49.383Z,5.74
2019-04-28T07:20:49.420Z,5.62
2019-04-28T07:21:49.362Z,5.26
2019-04-28T07:22:49.358Z,5.05
2019-04-28T07:23:49.346Z,5.07
2019-04-28T07:24:49.345Z,5.04
2019-04-28T07:25:49.326Z,4.95
2019-04-28T07:27:00.965Z,5.02
2019-04-28T07:27:49.304Z,5.20
2019-04-28T07:28:49.292Z,5.29
2019-04-28T07:29:49.277Z,5.55
2019-04-28T07:30:49.265Z,5.64
2019-04-28T07:31:49.254Z,5.26
2019-04-28T07:32:49.370Z,5.36
2019-04-28T07:33:49.236Z,5.38
2019-04-28T07:34:49.234Z,5.55
2019-04-28T07:35:49.222Z,5.44
2019-04-28T07:36:49.214Z,5.31
2019-04-28T07:37:49.254Z,5.15
2019-04-28T07:38:49.206Z,5.20
2019-04-28T07:39:49.171Z,5.15
2019-04-28T07:40:49.172Z,5.16
2019-04-28T07:41:49.149Z,5.28
2019-04-28T07:42:49.147Z,5.07
2019-04-28T07:43:49.171Z,5.04
2019-04-28T07:44:49.126Z,5.29
2019-04-28T07:45:49.111Z,5.19
2019-04-28T07:46:49.096Z,5.36
2019-04-28T07:47:49.087Z,5.54
2019-04-28T07:48:49.100Z,5.56
2019-04-28T07:49:49.087Z,5.59
2019-04-28T07:50:49.057Z,5.72
2019-04-28T07:51:49.040Z,5.49
2019-04-28T07:52:49.047Z,5.41
2019-04-28T07:53:49.020Z,5.40
2019-04-28T07:54:49.057Z,5.55
2019-04-28T07:55:49.032Z,5.73
2019-04-28T07:56:48.985Z,5.49
2019-04-28T07:58:01.397Z,5.44
2019-04-28T07:58:48.964Z,5.43
2019-04-28T07:59:48.957Z,5.56
2019-04-28T08:00:49.010Z,5.56
2019-04-28T08:01:48.937Z,5.55
2019-04-28T08:02:48.920Z,5.65
2019-04-28T08:03:50.024Z,5.74
2019-04-28T08:04:48.900Z,5.79
2019-04-28T08:05:48.892Z,5.94
2019-04-28T08:06:48.914Z,5.97
2019-04-28T08:07:48.867Z,5.95
2019-04-28T08:08:48.858Z,5.64
2019-04-28T08:09:48.851Z,5.41
2019-04-28T08:10:48.833Z,5.67
2019-04-28T08:11:48.830Z,5.58
2019-04-28T08:12:49.234Z,5.54
2019-04-28T08:13:48.805Z,5.51
2019-04-28T08:14:48.795Z,5.52
2019-04-28T08:15:48.786Z,5.47
2019-04-28T08:16:48.769Z,5.56
2019-04-28T08:17:48.762Z,5.80
2019-04-28T08:18:48.791Z,5.99
2019-04-28T08:19:48.742Z,6.05
2019-04-28T08:20:48.729Z,6.20
2019-04-28T08:21:48.716Z,6.06
2019-04-28T08:22:48.708Z,6.06
2019-04-28T08:23:48.703Z,6.25
2019-04-28T08:24:48.726Z,6.10
2019-04-28T08:25:48.678Z,5.95
2019-04-28T08:26:48.658Z,6.16
2019-04-28T08:27:48.648Z,6.34
2019-04-28T08:29:01.141Z,6.25
2019-04-28T08:29:58.051Z,6.13
2019-04-28T08:30:49.652Z,6.26
2019-04-28T08:31:48.614Z,6.26
2019-04-28T08:32:48.599Z,5.84
2019-04-28T08:33:48.585Z,5.81
2019-04-28T08:34:48.576Z,5.87
2019-04-28T08:35:48.570Z,5.88
2019-04-28T08:36:48.567Z,5.65
2019-04-28T08:37:48.546Z,5.74
2019-04-28T08:38:48.539Z,5.84
2019-04-28T08:39:48.530Z,5.74
2019-04-28T08:40:48.730Z,6.05
2019-04-28T08:41:48.503Z,6.12
2019-04-28T08:42:48.493Z,6.36
2019-04-28T08:43:48.473Z,6.53
2019-04-28T08:44:48.464Z,6.49
2019-04-28T08:45:48.459Z,6.25
2019-04-28T08:46:48.491Z,6.31
2019-04-28T08:47:48.434Z,6.41
2019-04-28T08:48:48.423Z,6.52
2019-04-28T08:49:48.410Z,6.72
2019-04-28T08:50:48.408Z,6.83
2019-04-28T08:51:48.390Z,6.38
2019-04-28T08:52:48.426Z,6.22
2019-04-28T08:53:48.364Z,6.22
2019-04-28T08:54:48.357Z,6.36
2019-04-28T08:55:48.345Z,6.39
2019-04-28T08:56:48.338Z,6.15
2019-04-28T08:57:48.321Z,6.16
2019-04-28T08:58:48.319Z,6.16
2019-04-28T09:00:00.786Z,6.38
2019-04-28T09:00:48.288Z,6.36
2019-04-28T09:01:48.276Z,6.36
2019-04-28T09:02:48.268Z,6.35
2019-04-28T09:03:48.577Z,6.49
2019-04-28T09:04:48.246Z,6.44
2019-04-28T09:05:48.235Z,6.25
2019-04-28T09:06:48.220Z,5.95
2019-04-28T09:07:48.212Z,6.20
2019-04-28T09:08:48.200Z,6.29
2019-04-28T09:09:48.232Z,6.47
2019-04-28T09:10:48.177Z,6.20
2019-04-28T09:11:48.176Z,6.17
2019-04-28T09:12:48.152Z,6.06
2019-04-28T09:13:48.145Z,6.26
2019-04-28T09:14:48.131Z,6.38
2019-04-28T09:15:48.165Z,5.99
2019-04-28T09:16:48.107Z,5.87
2019-04-28T09:17:48.111Z,5.97
2019-04-28T09:18:48.095Z,6.06
2019-04-28T09:19:48.080Z,6.28
2019-04-28T09:20:48.067Z,6.39
2019-04-28T09:21:48.065Z,6.54
2019-04-28T09:22:48.043Z,6.46
2019-04-28T09:23:48.031Z,6.41
2019-04-28T09:24:48.020Z,6.20
2019-04-28T09:25:48.007Z,6.26
2019-04-28T09:26:48.037Z,6.25
2019-04-28T09:27:47.998Z,6.38
2019-04-28T09:28:47.985Z,6.47
2019-04-28T09:29:47.965Z,6.44
2019-04-28T09:31:00.497Z,6.62
2019-04-28T09:31:47.950Z,6.60
2019-04-28T09:32:47.968Z,6.62
2019-04-28T09:33:47.926Z,6.90
2019-04-28T09:34:47.920Z,7.00
2019-04-28T09:35:47.897Z,6.89
2019-04-28T09:36:47.909Z,6.96
2019-04-28T09:37:47.890Z,6.80
2019-04-28T09:38:47.886Z,6.72
2019-04-28T09:39:47.855Z,6.85
2019-04-28T09:40:47.846Z,6.70
2019-04-28T09:41:47.834Z,6.86
2019-04-28T09:42:47.827Z,6.83
2019-04-28T09:43:47.812Z,6.75
2019-04-28T09:44:47.813Z,6.70
2019-04-28T09:45:47.793Z,6.67
2019-04-28T09:46:47.782Z,6.89
2019-04-28T09:47:47.765Z,7.03
2019-04-28T09:48:47.759Z,6.87
2019-04-28T09:49:47.786Z,6.53
2019-04-28T09:50:47.742Z,6.53
2019-04-28T09:51:47.735Z,6.78
2019-04-28T09:52:48.849Z,6.93
2019-04-28T09:53:47.725Z,7.05
2019-04-28T09:54:47.692Z,7.14
2019-04-28T09:55:47.709Z,7.13
2019-04-28T09:56:56.493Z,6.89
2019-04-28T09:57:48.659Z,6.90
2019-04-28T09:58:47.652Z,7.10
2019-04-28T09:59:47.635Z,7.15
2019-04-28T10:00:47.629Z,7.15
2019-04-28T10:02:01.082Z,7.10
2019-04-28T10:02:47.609Z,7.10
2019-04-28T10:03:47.596Z,7.21
2019-04-28T10:04:47.596Z,7.25
2019-04-28T10:05:47.603Z,7.43
2019-04-28T10:06:47.564Z,7.40
2019-04-28T10:07:47.548Z,7.39
2019-04-28T10:08:47.546Z,7.26
2019-04-28T10:09:47.549Z,7.05
2019-04-28T10:10:47.518Z,6.90
2019-04-28T10:11:47.544Z,6.96
2019-04-28T10:12:47.488Z,7.05
2019-04-28T10:13:47.492Z,6.87
2019-04-28T10:14:47.471Z,6.89
2019-04-28T10:15:47.468Z,7.13
2019-04-28T10:16:47.442Z,7.10
2019-04-28T10:17:47.449Z,7.32
2019-04-28T10:18:47.424Z,7.25
2019-04-28T10:19:47.421Z,7.11
2019-04-28T10:20:47.403Z,7.21
2019-04-28T10:21:47.392Z,7.08
2019-04-28T10:22:47.378Z,6.90
2019-04-28T10:23:47.394Z,7.03
2019-04-28T10:24:47.358Z,7.07
2019-04-28T10:25:47.348Z,7.15
2019-04-28T10:26:47.339Z,7.37
2019-04-28T10:27:47.339Z,7.58
2019-04-28T10:28:47.351Z,7.51
2019-04-28T10:29:47.306Z,7.48
2019-04-28T10:30:47.289Z,7.37
2019-04-28T10:31:47.284Z,7.23
2019-04-28T10:33:00.558Z,7.31
2019-04-28T10:33:47.259Z,7.29
2019-04-28T10:34:54.794Z,7.33
2019-04-28T10:35:48.239Z,7.41
2019-04-28T10:36:47.230Z,7.25
2019-04-28T10:37:47.214Z,7.29
2019-04-28T10:38:47.206Z,7.43
2019-04-28T10:39:47.194Z,7.25
2019-04-28T10:40:47.216Z,6.93
2019-04-28T10:41:47.167Z,7.03
2019-04-28T10:42:47.157Z,7.15
2019-04-28T10:43:47.140Z,7.10
2019-04-28T10:44:47.133Z,7.23
2019-04-28T10:45:47.127Z,7.37
2019-04-28T10:46:47.121Z,7.67
2019-04-28T10:47:47.105Z,7.91
2019-04-28T10:48:47.101Z,7.83
2019-04-28T10:49:47.082Z,7.64
2019-04-28T10:50:47.078Z,7.58
2019-04-28T10:51:58.831Z,7.67
2019-04-28T10:52:48.058Z,7.70
2019-04-28T10:53:47.034Z,7.74
2019-04-28T10:54:47.041Z,7.81
2019-04-28T10:55:47.601Z,7.64
2019-04-28T10:56:47.008Z,7.61
2019-04-28T10:57:47.028Z,7.41
2019-04-28T10:58:46.976Z,7.62
2019-04-28T10:59:46.984Z,7.75
2019-04-28T11:00:46.970Z,7.78
2019-04-28T11:01:46.947Z,7.84
2019-04-28T11:02:46.941Z,7.96
2019-04-28T11:03:59.649Z,7.72
2019-04-28T11:04:46.916Z,7.62
2019-04-28T11:05:46.909Z,7.41
2019-04-28T11:06:46.892Z,7.31
2019-04-28T11:07:46.878Z,7.41
2019-04-28T11:08:46.909Z,7.64
2019-04-28T11:09:46.861Z,7.46
2019-04-28T11:10:46.857Z,7.47
2019-04-28T11:11:46.836Z,7.59
2019-04-28T11:12:46.827Z,7.56
2019-04-28T11:13:46.819Z,7.58
2019-04-28T11:14:46.845Z,7.72
2019-04-28T11:15:46.797Z,7.91
2019-04-28T11:16:46.783Z,7.83
2019-04-28T11:17:46.772Z,7.55
2019-04-28T11:18:46.763Z,7.81
2019-04-28T11:19:46.765Z,7.90
2019-04-28T11:20:46.785Z,7.75
2019-04-28T11:21:46.722Z,7.78
2019-04-28T11:22:46.718Z,8.08
2019-04-28T11:23:46.705Z,7.91
2019-04-28T11:24:46.689Z,7.78
2019-04-28T11:25:46.687Z,7.84
2019-04-28T11:26:46.705Z,7.95
2019-04-28T11:27:46.661Z,7.93
2019-04-28T11:28:46.656Z,8.05
2019-04-28T11:29:46.635Z,8.06
2019-04-28T11:30:46.654Z,8.27
2019-04-28T11:31:46.618Z,8.28
2019-04-28T11:32:46.648Z,8.09
2019-04-28T11:33:46.601Z,7.90
2019-04-28T11:35:00.015Z,7.87
2019-04-28T11:35:46.567Z,8.03
2019-04-28T11:36:46.562Z,8.06
2019-04-28T11:37:46.550Z,8.08
2019-04-28T11:38:46.554Z,8.13
2019-04-28T11:39:46.585Z,8.17
2019-04-28T11:40:46.522Z,8.17
2019-04-28T11:41:46.514Z,8.34
2019-04-28T11:42:46.492Z,8.38
2019-04-28T11:43:46.526Z,8.11
2019-04-28T11:44:46.487Z,8.06
2019-04-28T11:45:46.472Z,7.95
2019-04-28T11:46:46.446Z,8.13
2019-04-28T11:47:46.438Z,8.20
2019-04-28T11:48:46.435Z,8.08
2019-04-28T11:49:46.458Z,8.36
2019-04-28T11:50:46.405Z,8.54
2019-04-28T11:51:46.404Z,8.36
2019-04-28T11:52:46.385Z,8.31
2019-04-28T11:53:46.371Z,8.09
2019-04-28T11:54:46.362Z,8.09
2019-04-28T11:55:46.406Z,8.17
2019-04-28T11:56:46.343Z,8.09
2019-04-28T11:57:46.339Z,8.14
2019-04-28T11:58:46.325Z,8.06
2019-04-28T11:59:46.314Z,7.98
2019-04-28T12:00:46.296Z,8.08
2019-04-28T12:01:46.326Z,8.17
2019-04-28T12:02:46.284Z,8.17
2019-04-28T12:03:46.270Z,8.17
2019-04-28T12:04:46.264Z,8.14
2019-04-28T12:06:00.049Z,8.13
2019-04-28T12:06:46.234Z,8.18
2019-04-28T12:07:46.259Z,8.08
2019-04-28T12:08:46.220Z,8.01
2019-04-28T12:09:46.203Z,8.03
2019-04-28T12:10:46.195Z,8.06
2019-04-28T12:11:46.179Z,8.09
2019-04-28T12:12:46.170Z,8.13
2019-04-28T12:13:46.168Z,7.83
2019-04-28T12:14:46.142Z,8.09
2019-04-28T12:15:46.137Z,8.20
2019-04-28T12:16:46.127Z,8.17
2019-04-28T12:17:46.154Z,8.09
2019-04-28T12:18:46.104Z,8.20
2019-04-28T12:19:46.093Z,8.27
2019-04-28T12:20:46.079Z,8.39
2019-04-28T12:21:46.084Z,8.36
2019-04-28T12:22:46.058Z,8.39
2019-04-28T12:23:46.099Z,8.34
2019-04-28T12:24:46.241Z,8.38
2019-04-28T12:25:46.035Z,8.56
2019-04-28T12:26:46.019Z,8.50
2019-04-28T12:27:46.020Z,8.54
2019-04-28T12:28:45.991Z,8.75
2019-04-28T12:29:46.019Z,8.78
2019-04-28T12:30:45.970Z,8.81
2019-04-28T12:31:45.962Z,8.66
2019-04-28T12:32:45.959Z,8.64
2019-04-28T12:33:45.940Z,8.54
2019-04-28T12:34:45.921Z,8.63
2019-04-28T12:35:48.148Z,8.53
2019-04-28T12:36:58.067Z,8.75
2019-04-28T12:37:45.894Z,8.61
2019-04-28T12:38:45.878Z,8.64
2019-04-28T12:39:45.877Z,8.71
2019-04-28T12:40:45.905Z,8.82
2019-04-28T12:41:45.865Z,8.92
2019-04-28T12:42:45.842Z,8.78
2019-04-28T12:43:45.825Z,8.66
2019-04-28T12:44:45.816Z,8.61
2019-04-28T12:45:45.804Z,8.45
2019-04-28T12:46:45.830Z,8.36
2019-04-28T12:47:45.791Z,8.34
2019-04-28T12:48:45.785Z,8.60
2019-04-28T12:49:45.763Z,8.64
2019-04-28T12:50:45.749Z,8.74
2019-04-28T12:51:45.746Z,8.82
2019-04-28T12:52:45.801Z,8.95
2019-04-28T12:53:45.726Z,8.89
2019-04-28T12:54:45.721Z,8.84
2019-04-28T12:55:45.704Z,8.66
2019-04-28T12:56:45.686Z,8.68
2019-04-28T12:57:45.682Z,8.79
2019-04-28T12:58:45.711Z,8.61
2019-04-28T12:59:45.653Z,8.56
2019-04-28T13:00:45.647Z,8.59
2019-04-28T13:01:45.637Z,8.63
2019-04-28T13:02:45.622Z,8.56
2019-04-28T13:03:45.611Z,8.36
2019-04-28T13:04:45.615Z,8.34
2019-04-28T13:05:45.590Z,8.32
2019-04-28T13:06:45.599Z,8.36
2019-04-28T13:07:58.516Z,8.49
2019-04-28T13:08:45.566Z,8.61
2019-04-28T13:09:45.566Z,8.72
2019-04-28T13:10:45.542Z,8.68
2019-04-28T13:11:45.527Z,8.54
2019-04-28T13:12:45.516Z,8.72
2019-04-28T13:13:46.940Z,8.75
2019-04-28T13:14:45.494Z,8.61
2019-04-28T13:15:45.490Z,8.66
2019-04-28T13:16:45.472Z,8.78
2019-04-28T13:17:45.457Z,8.82
2019-04-28T13:18:45.447Z,8.93